Time;durP1;ratioP1;P1;durP2;ratioP2;P2;SDS_P1;SDS_P2;PMS_P1;PMS_P2;Temp;Humidity;BMP_temperature;BMP_pressure;BME280_temperature;BME280_humidity;BME280_pressure;Samples;Min_cycle;Max_cycle;Signal;HPM_P1;HPM_P2
2022/05/17 00:02:14;;;;;;;4.00;3.30;;;20.40;67.90;;;-142.21;100.00;112049.66;5092658;28;20208;-70
2022/05/17 00:04:42;;;;;;;4.10;3.20;;;20.40;67.90;;;-142.21;100.00;112049.66;5090242;28;20327;-70
2022/05/17 00:07:11;;;;;;;4.50;3.07;;;20.30;67.80;;;-142.21;100.00;112049.66;5088900;28;20293;-70
2022/05/17 00:09:38;;;;;;;3.10;2.80;;;20.30;67.80;;;-142.21;100.00;112049.66;5073677;28;20248;-70
2022/05/17 00:12:07;;;;;;;3.87;3.00;;;20.20;67.70;;;-142.21;100.00;112049.66;5088075;28;20255;-70
2022/05/17 00:14:34;;;;;;;4.33;3.00;;;20.20;67.70;;;-142.21;100.00;112049.66;5059793;28;20200;-70
2022/05/17 00:17:02;;;;;;;3.30;3.00;;;20.20;67.60;;;-142.21;100.00;112049.66;5092162;28;20196;-70
2022/05/17 00:19:30;;;;;;;4.27;3.23;;;20.20;67.70;;;-142.21;100.00;112049.66;5076857;28;20713;-70
2022/05/17 00:21:58;;;;;;;3.63;2.93;;;20.10;67.60;;;-142.21;100.00;112049.66;5083980;28;20617;-70
2022/05/17 00:24:27;;;;;;;2.93;2.60;;;20.10;67.60;;;-142.21;100.00;112049.66;5073321;28;20205;-70
2022/05/17 00:26:55;;;;;;;4.10;3.00;;;20.10;67.60;;;-142.21;100.00;112049.66;5080670;28;20215;-70
2022/05/17 00:29:22;;;;;;;3.50;2.97;;;20.10;67.50;;;-142.21;100.00;112049.66;5059458;28;20270;-70
2022/05/17 00:31:49;;;;;;;3.97;2.57;;;20.10;67.30;;;-142.21;100.00;112049.66;5093509;28;20443;-70
2022/05/17 00:34:17;;;;;;;4.60;3.30;;;20.00;67.50;;;-142.21;100.00;112049.66;5083735;28;20461;-70
2022/05/17 00:36:44;;;;;;;3.33;3.00;;;20.00;67.50;;;-142.21;100.00;112049.66;5092347;28;20485;-70
2022/05/17 00:39:11;;;;;;;3.47;3.00;;;20.00;68.20;;;-142.21;100.00;112049.66;5078527;28;20296;-70
2022/05/17 00:41:40;;;;;;;5.20;3.27;;;19.90;67.80;;;-142.21;100.00;112049.66;5086751;28;20197;-70
2022/05/17 00:46:59;;;;;;;5.87;4.63;;;19.80;69.00;;;-142.21;100.00;112049.66;5092997;28;20196;-70
2022/05/17 00:49:33;;;;;;;4.77;3.73;;;19.80;69.10;;;-142.21;100.00;112049.66;5058707;28;20462;-70
2022/05/17 00:52:10;;;;;;;5.17;4.00;;;19.70;69.00;;;-142.21;100.00;112049.66;5091318;28;20193;-70
2022/05/17 00:54:39;;;;;;;4.67;3.80;;;19.70;69.00;;;-142.21;100.00;112049.66;5092716;28;20430;-70
2022/05/17 00:57:21;;;;;;;4.87;3.43;;;19.70;68.90;;;-142.21;100.00;112049.66;5075268;28;20197;-70
2022/05/17 00:59:50;;;;;;;5.37;3.60;;;19.70;68.90;;;-142.21;100.00;112049.66;5093274;28;20195;-70
2022/05/17 01:02:17;;;;;;;3.93;3.53;;;19.70;69.30;;;-142.21;100.00;112049.66;5073585;28;20251;-70
2022/05/17 01:04:45;;;;;;;7.13;2.93;;;19.70;68.60;;;-142.21;100.00;112049.66;5072352;28;20478;-70
2022/05/17 01:07:18;;;;;;;3.30;2.90;;;19.60;68.30;;;-142.21;100.00;112049.66;5084416;28;20442;-70
2022/05/17 01:09:46;;;;;;;4.10;3.03;;;19.60;68.40;;;-142.21;100.00;112049.66;5064236;28;20638;-71
2022/05/17 01:12:14;;;;;;;4.03;3.40;;;19.60;68.60;;;-142.21;100.00;112049.66;5087317;28;20197;-70
2022/05/17 01:15:00;;;;;;;4.43;3.20;;;19.50;68.80;;;-142.21;100.00;112049.66;5087703;28;20531;-70
2022/05/17 01:17:31;;;;;;;3.73;3.33;;;19.40;69.40;;;-142.21;100.00;112049.66;5072360;28;20204;-70
2022/05/17 01:19:58;;;;;;;4.20;3.10;;;19.30;69.80;;;-142.21;100.00;112049.66;5075013;28;20452;-70
2022/05/17 01:22:27;;;;;;;3.57;3.10;;;19.30;69.70;;;-142.21;100.00;112049.66;5081744;28;20450;-70
2022/05/17 01:24:54;;;;;;;4.33;2.90;;;19.30;69.40;;;-142.21;100.00;112049.66;5082983;28;20439;-70
2022/05/17 01:27:29;;;;;;;5.67;3.37;;;19.30;69.70;;;-142.21;100.00;112049.66;5075668;28;20603;-70
2022/05/17 01:29:56;;;;;;;3.80;3.43;;;19.30;69.80;;;-142.21;100.00;112049.66;5083646;28;20271;-70
2022/05/17 01:32:24;;;;;;;3.77;3.27;;;19.20;69.70;;;-142.21;100.00;112049.66;5072083;28;20443;-70
2022/05/17 01:34:52;;;;;;;5.63;3.40;;;19.20;69.80;;;-142.21;100.00;112049.66;5087794;28;20569;-70
2022/05/17 01:37:20;;;;;;;2.90;2.63;;;19.20;70.00;;;-142.21;100.00;112049.66;5092531;28;20453;-70
2022/05/17 01:39:48;;;;;;;5.93;3.57;;;19.10;69.50;;;-142.21;100.00;112049.66;5077271;28;20279;-70
2022/05/17 01:42:17;;;;;;;4.33;3.40;;;19.10;70.10;;;-142.21;100.00;112049.66;5087124;28;20478;-70
2022/05/17 01:44:45;;;;;;;3.07;2.80;;;19.00;70.30;;;-142.21;100.00;112049.66;5091828;28;20450;-70
2022/05/17 01:47:14;;;;;;;4.33;3.07;;;18.90;70.50;;;-142.21;100.00;112049.66;5073016;28;20207;-70
2022/05/17 01:49:41;;;;;;;3.73;3.30;;;18.90;70.40;;;-142.21;100.00;112049.66;5072827;28;20223;-70
2022/05/17 01:52:09;;;;;;;2.90;2.67;;;18.90;70.40;;;-142.21;100.00;112049.66;5085615;28;20543;-70
2022/05/17 01:54:36;;;;;;;3.47;3.17;;;18.90;70.10;;;-142.21;100.00;112049.66;5077707;28;20233;-70
2022/05/17 01:57:06;;;;;;;3.77;3.17;;;18.90;69.90;;;-142.21;100.00;112049.66;5073045;28;20489;-70
2022/05/17 01:59:33;;;;;;;3.50;3.20;;;18.90;69.70;;;-142.21;100.00;112049.66;5075159;28;20447;-70
2022/05/17 02:02:04;;;;;;;4.57;3.70;;;19.00;69.70;;;-142.21;100.00;112049.66;5035935;28;20194;-71
2022/05/17 02:04:31;;;;;;;3.90;2.90;;;19.00;69.50;;;-142.21;100.00;112049.66;5055832;28;20228;-70
2022/05/17 02:06:58;;;;;;;6.00;3.67;;;19.00;69.50;;;-142.21;100.00;112049.66;5090374;28;20434;-70
2022/05/17 02:09:25;;;;;;;4.87;3.30;;;19.00;69.20;;;-142.21;100.00;112049.66;5084564;28;20474;-70
2022/05/17 02:11:52;;;;;;;4.47;3.27;;;18.90;68.90;;;-142.21;100.00;112049.66;5085711;28;20451;-70
2022/05/17 02:14:21;;;;;;;3.67;3.20;;;18.90;68.90;;;-142.21;100.00;112049.66;5080300;28;20442;-70
2022/05/17 02:16:48;;;;;;;5.13;3.33;;;18.90;69.00;;;-142.21;100.00;112049.66;5079397;28;20549;-70
2022/05/17 02:19:19;;;;;;;4.10;2.90;;;18.90;69.00;;;-142.21;100.00;112049.66;5078846;28;20474;-70
2022/05/17 02:21:47;;;;;;;3.47;3.17;;;18.90;69.00;;;-142.21;100.00;112049.66;5076715;28;20470;-70
2022/05/17 02:24:15;;;;;;;4.30;3.67;;;18.90;69.20;;;-142.21;100.00;112049.66;5085183;28;20524;-70
2022/05/17 02:26:42;;;;;;;4.77;3.10;;;18.80;69.20;;;-142.21;100.00;112049.66;5076590;28;20439;-70
2022/05/17 02:29:09;;;;;;;3.70;3.40;;;18.80;69.50;;;-142.21;100.00;112049.66;5089629;28;20469;-70
2022/05/17 02:31:38;;;;;;;4.37;3.40;;;18.80;69.80;;;-142.21;100.00;112049.66;5081059;28;20785;-70
2022/05/17 02:34:05;;;;;;;3.60;3.30;;;18.80;70.50;;;-142.21;100.00;112049.66;5071520;28;20205;-70
2022/05/17 02:36:33;;;;;;;3.87;3.53;;;18.80;69.70;;;-142.21;100.00;112049.66;5084751;28;20505;-69
2022/05/17 02:39:00;;;;;;;5.43;3.23;;;18.70;69.50;;;-142.21;100.00;112049.66;5064834;28;20442;-70
2022/05/17 02:41:27;;;;;;;3.30;3.00;;;18.70;69.50;;;-142.21;100.00;112049.66;5094795;28;20453;-69
2022/05/17 02:43:54;;;;;;;3.33;3.03;;;18.70;69.60;;;-142.21;100.00;112049.66;5092543;28;20440;-69
2022/05/17 02:46:21;;;;;;;4.50;3.20;;;18.70;69.50;;;-142.21;100.00;112049.66;5075728;28;20943;-70
2022/05/17 02:48:50;;;;;;;5.80;3.57;;;18.70;69.40;;;-142.21;100.00;112049.66;5076266;28;20438;-70
2022/05/17 02:51:20;;;;;;;3.37;2.60;;;18.60;69.30;;;-142.21;100.00;112049.66;5075785;28;20443;-70
2022/05/17 02:53:47;;;;;;;3.73;2.80;;;18.60;69.40;;;-142.21;100.00;112049.66;5079228;28;20439;-70
2022/05/17 02:56:15;;;;;;;2.83;2.63;;;18.50;69.10;;;-142.21;100.00;112049.66;5095019;28;20482;-70
2022/05/17 02:58:42;;;;;;;3.20;2.90;;;18.50;69.10;;;-142.21;100.00;112049.66;5077181;28;20449;-70
2022/05/17 03:01:10;;;;;;;2.80;2.53;;;18.50;69.10;;;-142.21;100.00;112049.66;5089764;28;20447;-70
2022/05/17 03:03:40;;;;;;;3.80;3.00;;;18.40;68.90;;;-142.21;100.00;112049.66;5074695;28;20489;-70
2022/05/17 03:06:11;;;;;;;4.77;3.20;;;18.40;69.00;;;-142.21;100.00;112049.66;5087369;28;20947;-70
2022/05/17 03:08:38;;;;;;;3.87;2.60;;;18.40;69.00;;;-142.21;100.00;112049.66;5094868;28;20522;-69
2022/05/17 03:11:08;;;;;;;3.30;2.77;;;18.40;68.90;;;-142.21;100.00;112049.66;5093136;28;20446;-70
2022/05/17 03:13:36;;;;;;;3.03;2.67;;;18.40;68.90;;;-142.21;100.00;112049.66;5074603;28;20435;-70
2022/05/17 03:16:05;;;;;;;4.67;3.00;;;18.40;69.00;;;-142.21;100.00;112049.66;5074925;28;20483;-70
2022/05/17 03:18:32;;;;;;;3.03;2.67;;;18.40;68.90;;;-142.21;100.00;112049.66;5074313;28;20449;-71
2022/05/17 03:20:59;;;;;;;3.93;3.50;;;18.30;68.80;;;-142.21;100.00;112049.66;5072677;28;20448;-70
2022/05/17 03:23:27;;;;;;;3.00;2.70;;;18.30;69.00;;;-142.21;100.00;112049.66;5078066;28;20530;-70
2022/05/17 03:25:54;;;;;;;3.47;2.83;;;18.30;69.10;;;-142.21;100.00;112049.66;5086008;28;20442;-70
2022/05/17 03:28:21;;;;;;;4.17;2.80;;;18.30;69.10;;;-142.21;100.00;112049.66;5081492;28;20463;-70
2022/05/17 03:30:49;;;;;;;2.90;2.60;;;18.30;69.20;;;-142.21;100.00;112049.66;5083737;28;20451;-70
2022/05/17 03:33:16;;;;;;;3.33;3.03;;;18.30;69.20;;;-142.21;100.00;112049.66;5074919;28;20868;-70
2022/05/17 03:35:43;;;;;;;3.50;3.00;;;18.30;69.20;;;-142.21;100.00;112049.66;5081811;28;20487;-70
2022/05/17 03:38:10;;;;;;;3.63;2.93;;;18.20;69.20;;;-142.21;100.00;112049.66;5089261;28;20478;-70
2022/05/17 03:40:39;;;;;;;3.57;3.10;;;18.20;68.90;;;-142.21;100.00;112049.66;5090847;28;20945;-70
2022/05/17 03:43:06;;;;;;;3.00;2.67;;;18.10;68.80;;;-142.21;100.00;112049.66;5084485;28;20449;-70
2022/05/17 03:45:34;;;;;;;3.13;2.83;;;18.10;68.80;;;-142.21;100.00;112049.66;5075179;28;20532;-70
2022/05/17 03:48:01;;;;;;;3.53;2.70;;;18.00;69.20;;;-142.21;100.00;112049.66;5075735;28;20486;-70
2022/05/17 03:50:28;;;;;;;3.37;3.07;;;17.90;69.90;;;-142.21;100.00;112049.66;5091837;28;20524;-70
2022/05/17 03:52:55;;;;;;;2.50;2.30;;;17.90;69.80;;;-142.21;100.00;112049.66;5093231;28;20488;-70
2022/05/17 03:55:22;;;;;;;3.33;2.60;;;17.90;69.50;;;-142.21;100.00;112049.66;5085871;28;20505;-70
2022/05/17 03:57:51;;;;;;;3.50;2.50;;;17.90;69.20;;;-142.21;100.00;112049.66;5073573;28;20483;-70
2022/05/17 04:00:22;;;;;;;3.47;2.60;;;17.90;69.10;;;-142.21;100.00;112049.66;5083066;28;20485;-70
2022/05/17 04:02:49;;;;;;;3.20;2.77;;;17.90;69.20;;;-142.21;100.00;112049.66;5087251;28;20436;-70
2022/05/17 04:05:17;;;;;;;3.73;3.17;;;17.90;69.40;;;-142.21;100.00;112049.66;5074912;28;20578;-70
2022/05/17 04:07:45;;;;;;;7.40;3.40;;;17.90;69.60;;;-142.21;100.00;112049.66;5077571;28;20439;-70
2022/05/17 04:10:17;;;;;;;3.93;3.13;;;17.90;69.90;;;-142.21;100.00;112049.66;5085724;28;20447;-70
2022/05/17 04:12:45;;;;;;;3.70;3.27;;;17.90;70.10;;;-142.21;100.00;112049.66;5081174;28;20548;-70
2022/05/17 04:15:18;;;;;;;3.80;3.20;;;17.90;70.50;;;-142.21;100.00;112049.66;5077943;28;20478;-70
2022/05/17 04:17:46;;;;;;;4.53;3.50;;;17.90;70.50;;;-142.21;100.00;112049.66;5091741;28;20549;-70
2022/05/17 04:20:15;;;;;;;3.83;3.37;;;17.90;70.60;;;-142.21;100.00;112049.66;5079224;28;20531;-70
2022/05/17 04:22:44;;;;;;;7.83;3.70;;;17.90;70.70;;;-142.21;100.00;112049.66;5085165;28;20456;-70
2022/05/17 04:25:12;;;;;;;4.03;3.60;;;17.90;70.50;;;-142.21;100.00;112049.66;5084989;28;20442;-70
2022/05/17 04:27:39;;;;;;;4.13;3.40;;;17.90;70.50;;;-142.21;100.00;112049.66;5092967;28;20438;-70
2022/05/17 04:30:08;;;;;;;3.60;3.30;;;18.00;70.60;;;-142.21;100.00;112049.66;5092195;28;20489;-70
2022/05/17 04:32:37;;;;;;;3.47;3.17;;;18.00;70.60;;;-142.21;100.00;112049.66;5093233;28;20440;-70
2022/05/17 04:35:05;;;;;;;3.30;3.00;;;18.00;70.20;;;-142.21;100.00;112049.66;5088736;28;20803;-70
2022/05/17 04:37:33;;;;;;;5.03;3.67;;;18.00;69.80;;;-142.21;100.00;112049.66;5079184;28;20474;-70
2022/05/17 04:40:00;;;;;;;8.80;4.13;;;18.10;70.10;;;-142.21;100.00;112049.66;5085068;28;20517;-70
2022/05/17 04:42:27;;;;;;;8.03;4.60;;;18.10;70.10;;;-142.21;100.00;112049.66;5089875;28;20533;-70
2022/05/17 04:44:54;;;;;;;5.97;3.57;;;18.20;71.50;;;-142.21;100.00;112049.66;5091190;28;20442;-70
2022/05/17 04:47:22;;;;;;;7.57;4.13;;;18.20;70.80;;;-142.21;100.00;112049.66;5086777;28;20535;-70
2022/05/17 04:49:50;;;;;;;7.50;4.13;;;18.20;70.80;;;-142.21;100.00;112049.66;5085632;28;20525;-70
2022/05/17 04:52:18;;;;;;;5.73;4.40;;;18.30;71.00;;;-142.21;100.00;112049.66;5093156;28;20942;-70
2022/05/17 04:54:45;;;;;;;4.37;3.53;;;18.30;71.30;;;-142.21;100.00;112049.66;5092906;28;20443;-69
2022/05/17 04:57:12;;;;;;;4.07;3.40;;;18.30;71.40;;;-142.21;100.00;112049.66;5079670;28;20490;-69
2022/05/17 04:59:39;;;;;;;4.07;3.50;;;18.40;71.50;;;-142.21;100.00;112049.66;5083191;28;20478;-69
2022/05/17 05:02:07;;;;;;;4.83;3.70;;;18.40;71.60;;;-142.21;100.00;112049.66;5093509;28;20797;-69
2022/05/17 05:04:35;;;;;;;4.37;3.50;;;18.50;71.70;;;-142.21;100.00;112049.66;5091250;28;20466;-69
2022/05/17 05:07:03;;;;;;;4.10;3.70;;;18.60;71.70;;;-142.21;100.00;112049.66;5074729;28;20450;-69
2022/05/17 05:09:31;;;;;;;4.67;3.70;;;18.70;71.90;;;-142.21;100.00;112049.66;5081230;28;20450;-69
2022/05/17 05:11:58;;;;;;;4.47;3.50;;;18.70;71.70;;;-142.21;100.00;112049.66;5079157;28;20501;-69
2022/05/17 05:14:26;;;;;;;4.27;3.87;;;18.80;71.90;;;-142.21;100.00;112049.66;5073771;28;20448;-69
2022/05/17 05:16:53;;;;;;;4.93;3.80;;;18.90;72.20;;;-142.21;100.00;112049.66;5086421;28;20489;-70
2022/05/17 05:19:20;;;;;;;5.67;4.23;;;18.90;72.40;;;-142.21;100.00;112049.66;5086465;28;21023;-69
2022/05/17 05:21:47;;;;;;;4.87;3.80;;;19.00;72.50;;;-142.21;100.00;112049.66;5071644;28;20534;-70
2022/05/17 05:24:16;;;;;;;5.57;3.83;;;19.10;72.20;;;-142.21;100.00;112049.66;5075628;28;20530;-68
2022/05/17 05:26:43;;;;;;;4.40;3.57;;;19.20;72.30;;;-142.21;100.00;112049.66;5081004;28;20194;-69
2022/05/17 05:29:10;;;;;;;4.77;3.80;;;19.30;72.10;;;-142.21;100.00;112049.66;5075955;28;20502;-68
2022/05/17 05:31:37;;;;;;;8.00;4.20;;;19.30;72.20;;;-142.21;100.00;112049.66;5071892;28;20447;-69
2022/05/17 05:34:04;;;;;;;4.53;4.10;;;19.40;72.20;;;-142.21;100.00;112049.66;5072265;28;21028;-70
2022/05/17 05:36:31;;;;;;;4.80;4.03;;;19.50;72.80;;;-142.21;100.00;112049.66;5071882;28;20489;-69
2022/05/17 05:38:59;;;;;;;4.57;3.80;;;19.60;72.80;;;-142.21;100.00;112049.66;5071669;28;20919;-70
2022/05/17 05:41:27;;;;;;;6.80;4.00;;;19.70;72.70;;;-142.21;100.00;112049.66;5081661;28;20453;-70
2022/05/17 05:43:54;;;;;;;6.00;4.27;;;19.80;72.60;;;-142.21;100.00;112049.66;5092211;28;20295;-69
2022/05/17 05:46:22;;;;;;;4.23;3.73;;;19.90;72.70;;;-142.21;100.00;112049.66;5080982;28;20458;-70
2022/05/17 05:48:49;;;;;;;4.87;3.80;;;19.90;72.70;;;-142.21;100.00;112049.66;5072503;28;20288;-70
2022/05/17 05:51:17;;;;;;;5.17;3.93;;;20.00;72.70;;;-142.21;100.00;112049.66;5073156;28;20209;-70
2022/05/17 05:53:44;;;;;;;4.23;3.70;;;20.10;72.60;;;-142.21;100.00;112049.66;5090647;28;20257;-70
2022/05/17 05:56:12;;;;;;;4.17;3.77;;;20.20;72.50;;;-142.21;100.00;112049.66;5072176;28;20832;-70
2022/05/17 05:58:42;;;;;;;5.40;3.43;;;20.30;72.10;;;-142.21;100.00;112049.66;5072794;28;20482;-70
2022/05/17 06:01:10;;;;;;;4.17;3.30;;;20.40;72.10;;;-142.21;100.00;112049.66;5071867;28;20200;-70
2022/05/17 06:03:38;;;;;;;4.27;3.80;;;20.50;71.40;;;-142.21;100.00;112049.66;5086289;28;20228;-70
2022/05/17 06:06:08;;;;;;;4.33;3.87;;;20.60;70.80;;;-142.21;100.00;112049.66;5088435;28;20438;-70
2022/05/17 06:08:35;;;;;;;7.83;4.20;;;20.60;70.70;;;-142.21;100.00;112049.66;5084213;28;20568;-70
2022/05/17 06:11:02;;;;;;;4.37;3.73;;;20.70;70.10;;;-142.21;100.00;112049.66;5077508;28;20196;-70
2022/05/17 06:13:31;;;;;;;4.97;3.77;;;20.80;70.50;;;-142.21;100.00;112049.66;5077605;28;20287;-69
2022/05/17 06:15:59;;;;;;;4.37;3.97;;;20.70;70.40;;;-142.21;100.00;112049.66;5071263;28;20208;-70
2022/05/17 06:18:27;;;;;;;4.80;3.83;;;20.70;71.10;;;-142.21;100.00;112049.66;5071784;28;20225;-70
2022/05/17 06:20:57;;;;;;;5.47;3.60;;;20.90;71.60;;;-142.21;100.00;112049.66;5071568;28;20204;-70
2022/05/17 06:23:26;;;;;;;3.87;3.50;;;21.00;71.50;;;-142.21;100.00;112049.66;5051754;28;20200;-70
2022/05/17 06:25:53;;;;;;;3.87;3.53;;;21.10;70.90;;;-142.21;100.00;112049.66;5069621;28;20282;-70
2022/05/17 06:28:21;;;;;;;4.43;3.77;;;21.20;69.50;;;-142.21;100.00;112049.66;5071782;28;20308;-70
2022/05/17 06:30:48;;;;;;;4.90;4.00;;;21.30;68.90;;;-142.21;100.00;112049.66;5085939;28;20275;-70
2022/05/17 06:33:17;;;;;;;5.43;3.60;;;21.30;68.90;;;-142.21;100.00;112049.66;5071930;28;20346;-70
2022/05/17 06:35:48;;;;;;;3.77;3.43;;;21.50;70.00;;;-142.21;100.00;112049.66;5071237;28;20251;-70
2022/05/17 06:38:16;;;;;;;4.87;3.50;;;21.70;70.00;;;-142.21;100.00;112049.66;5071730;28;20263;-70
2022/05/17 06:40:44;;;;;;;3.43;3.10;;;21.80;68.70;;;-142.21;100.00;112049.66;5070826;28;20209;-70
2022/05/17 06:43:12;;;;;;;4.80;3.53;;;21.90;67.20;;;-142.21;100.00;112049.66;5071805;28;20207;-70
2022/05/17 06:45:39;;;;;;;4.63;2.83;;;22.00;66.20;;;-142.21;100.00;112049.66;5087319;28;20207;-70
2022/05/17 06:48:08;;;;;;;3.80;3.47;;;22.10;65.80;;;-142.21;100.00;112049.66;5091721;28;20588;-69
2022/05/17 06:50:37;;;;;;;5.57;3.50;;;22.20;65.70;;;-142.21;100.00;112049.66;5090540;28;20247;-70
2022/05/17 06:53:07;;;;;;;4.07;3.50;;;22.30;65.60;;;-142.21;100.00;112049.66;5091235;28;20644;-70
2022/05/17 06:55:34;;;;;;;3.90;3.50;;;22.30;65.70;;;-142.21;100.00;112049.66;5091602;28;20204;-70
2022/05/17 06:58:02;;;;;;;5.53;3.63;;;22.40;65.60;;;-142.21;100.00;112049.66;5090968;28;20763;-70
2022/05/17 07:00:31;;;;;;;4.87;3.40;;;22.50;65.50;;;-142.21;100.00;112049.66;5074499;28;20679;-69
2022/05/17 07:02:59;;;;;;;3.83;3.30;;;22.60;65.40;;;-142.21;100.00;112049.66;5070709;28;20236;-70
2022/05/17 07:05:26;;;;;;;4.40;3.37;;;22.70;65.00;;;-142.21;100.00;112049.66;5071211;28;20240;-70
2022/05/17 07:07:59;;;;;;;4.67;3.50;;;22.90;66.00;;;-142.21;100.00;112049.66;5070807;28;20224;-69
2022/05/17 07:13:13;;;;;;;3.70;3.10;;;23.10;64.70;;;-142.21;99.71;112049.66;5071228;28;20193;-69
2022/05/17 07:15:44;;;;;;;3.80;3.40;;;23.30;64.70;;;-142.21;100.00;112049.66;5051568;28;20202;-70
2022/05/17 07:18:15;;;;;;;4.80;3.17;;;23.40;66.10;;;-142.21;100.00;112049.66;5050912;28;20301;-69
2022/05/17 07:20:43;;;;;;;5.80;3.23;;;23.50;65.90;;;-142.21;100.00;112049.66;5050678;28;20288;-69
2022/05/17 07:23:13;;;;;;;3.50;3.17;;;23.60;65.40;;;-142.21;100.00;112049.66;5090826;28;20234;-69
2022/05/17 07:25:41;;;;;;;3.20;2.90;;;23.80;65.40;;;-142.21;100.00;112049.66;5077437;28;20209;-69
2022/05/17 07:28:09;;;;;;;4.07;3.20;;;23.90;65.00;;;-142.21;95.42;112049.66;5074883;28;20206;-70
2022/05/17 07:30:36;;;;;;;3.53;3.20;;;24.00;62.50;;;-142.21;95.46;112049.66;5074386;28;20209;-69
2022/05/17 07:33:04;;;;;;;3.77;3.03;;;24.00;62.00;;;-142.21;94.94;112049.66;5074218;28;20205;-69
2022/05/17 07:35:31;;;;;;;4.30;3.30;;;24.10;61.90;;;-142.21;94.25;112049.66;5074620;28;20746;-69
2022/05/17 07:38:01;;;;;;;3.83;3.10;;;24.20;61.70;;;-142.21;93.89;112049.66;5082109;28;20282;-69
2022/05/17 07:40:31;;;;;;;5.53;3.63;;;24.20;61.20;;;-142.21;94.20;112049.66;5074696;28;20225;-69
2022/05/17 07:42:58;;;;;;;3.90;3.50;;;24.30;61.30;;;-142.21;92.90;112049.66;5073928;28;20202;-71
2022/05/17 07:45:25;;;;;;;4.90;3.53;;;24.30;60.40;;;-142.21;92.24;112049.66;5074038;28;20214;-70
2022/05/17 07:47:52;;;;;;;3.90;3.60;;;24.20;60.30;;;-142.21;92.84;112049.66;5073992;28;20231;-71
2022/05/17 07:50:20;;;;;;;3.53;3.23;;;24.20;61.50;;;-142.21;90.28;112049.66;5074520;28;20207;-71
2022/05/17 07:52:47;;;;;;;4.10;3.53;;;24.30;60.00;;;-142.21;92.27;112049.66;5089754;28;20205;-70
2022/05/17 07:55:16;;;;;;;3.60;3.30;;;24.40;60.50;;;-142.21;90.16;112049.66;5094552;28;20249;-70
2022/05/17 07:57:44;;;;;;;5.83;3.43;;;24.50;59.80;;;-142.21;89.64;112049.66;5094578;28;20624;-70
2022/05/17 08:00:13;;;;;;;5.90;3.57;;;24.60;59.60;;;-142.21;89.01;112049.66;5094380;28;20208;-70
2022/05/17 08:02:42;;;;;;;5.77;3.87;;;24.70;59.20;;;-142.21;89.73;112049.66;5094349;28;20204;-70
2022/05/17 08:05:11;;;;;;;3.80;3.40;;;24.90;59.40;;;-142.21;92.33;112049.66;5093428;28;20776;-70
2022/05/17 08:07:38;;;;;;;5.73;4.13;;;25.10;59.90;;;-142.21;87.60;112049.66;5077101;28;20197;-70
2022/05/17 08:10:07;;;;;;;4.70;3.43;;;25.10;58.50;;;-142.21;88.74;112049.66;5073711;28;20239;-70
2022/05/17 08:12:34;;;;;;;6.10;3.80;;;25.20;58.80;;;-142.21;87.70;112049.66;5074039;28;20289;-70
2022/05/17 08:15:04;;;;;;;4.53;3.10;;;25.20;58.20;;;-142.21;84.32;112049.66;5073003;28;20243;-70
2022/05/17 08:17:31;;;;;;;5.93;3.30;;;25.20;57.50;;;-142.21;85.80;112049.66;5073758;28;20315;-70
2022/05/17 08:19:58;;;;;;;6.43;3.63;;;25.30;57.70;;;-142.21;87.12;112049.66;5073373;28;20209;-70
2022/05/17 08:22:25;;;;;;;3.83;3.43;;;25.30;58.10;;;-142.21;90.13;112049.66;5076794;28;20233;-70
2022/05/17 08:27:39;;;;;;;4.83;3.37;;;25.70;58.70;;;-142.21;91.97;112049.66;5064466;28;20247;-70
2022/05/17 08:30:19;;;;;;;5.43;3.73;;;25.80;59.30;;;-142.21;91.88;112049.66;5073018;28;20435;-70
2022/05/17 08:35:38;;;;;;;4.47;3.30;;;26.10;57.80;;;-142.21;84.13;112049.66;5073148;28;20703;-70
2022/05/17 08:38:06;;;;;;;4.70;3.40;;;26.10;56.70;;;-142.21;84.47;112049.66;5053081;28;20218;-70
2022/05/17 08:40:57;;;;;;;3.53;3.23;;;26.20;56.70;;;-142.21;86.92;112049.66;5053620;28;20212;-70
2022/05/17 08:43:35;;;;;;;4.07;3.63;;;26.20;57.20;;;-142.21;87.92;112049.66;5053336;28;20205;-70
2022/05/17 08:46:22;;;;;;;4.10;3.30;;;26.30;57.60;;;-142.21;85.20;112049.66;5053099;28;20276;-70
2022/05/17 08:48:53;;;;;;;5.50;3.73;;;26.40;56.60;;;-142.21;88.10;112049.66;5052495;28;20700;-70
2022/05/17 08:51:36;;;;;;;6.63;3.80;;;26.50;57.70;;;-142.21;86.64;112049.66;5070408;28;20246;-70
2022/05/17 08:54:08;;;;;;;6.93;3.33;;;26.60;57.30;;;-142.21;83.17;112049.66;5092827;28;20184;-70
2022/05/17 08:56:42;;;;;;;6.87;3.23;;;26.70;56.40;;;-142.21;80.14;112049.66;5093370;28;20192;-70
2022/05/17 08:59:18;;;;;;;3.40;3.10;;;26.80;55.30;;;-142.21;78.99;112049.66;5092697;28;20214;-70
2022/05/17 09:01:55;;;;;;;3.00;2.80;;;26.90;54.70;;;-142.21;77.54;112049.66;5093550;28;20192;-70
2022/05/17 09:05:13;;;;;;;3.90;2.50;;;27.00;54.30;;;-142.21;68.15;112049.66;5093080;28;20232;-70
2022/05/17 09:07:51;;;;;;;4.27;2.43;;;27.00;51.20;;;-142.21;68.97;112049.66;5052768;28;20198;-70
2022/05/17 09:10:33;;;;;;;4.10;2.60;;;27.10;52.30;;;-142.21;67.75;112049.66;5053089;28;20194;-70
2022/05/17 09:13:11;;;;;;;5.50;2.40;;;27.10;51.60;;;-142.21;67.71;112049.66;5051928;28;20284;-70
2022/05/17 09:15:38;;;;;;;3.87;2.50;;;27.20;51.70;;;-142.21;73.74;112049.66;5053050;28;20194;-69
2022/05/17 09:18:13;;;;;;;4.53;2.57;;;27.30;52.90;;;-142.21;62.19;112049.66;5052207;28;20593;-70
2022/05/17 09:20:41;;;;;;;2.37;2.10;;;27.30;50.30;;;-142.21;64.36;112049.66;5064757;28;20188;-70
2022/05/17 09:23:09;;;;;;;2.83;2.40;;;27.30;51.10;;;-142.21;57.83;112049.66;5071814;28;20240;-70
2022/05/17 09:25:52;;;;;;;4.17;2.50;;;27.20;49.80;;;-142.21;67.69;112049.66;5072397;28;20197;-69
2022/05/17 09:28:22;;;;;;;3.63;2.40;;;27.30;51.10;;;-142.21;70.36;112049.66;5072510;28;20633;-70
2022/05/17 09:31:08;;;;;;;3.20;2.83;;;27.50;52.10;;;-142.21;67.78;112049.66;5072190;28;20189;-70
2022/05/17 09:33:41;;;;;;;3.70;2.50;;;27.60;51.30;;;-142.21;66.82;112049.66;5072367;28;20304;-70
2022/05/17 09:36:18;;;;;;;4.67;2.43;;;27.70;51.20;;;-142.21;68.95;112049.66;5072037;28;20288;-70
2022/05/17 09:38:48;;;;;;;3.00;2.27;;;27.90;51.70;;;-142.21;64.19;112049.66;5072427;28;20210;-70
2022/05/17 09:41:22;;;;;;;2.37;2.17;;;28.00;50.70;;;-142.21;63.83;112049.66;5072416;28;20187;-70
2022/05/17 09:43:57;;;;;;;4.53;2.30;;;28.10;50.40;;;-142.21;62.44;112049.66;5072549;28;20282;-70
2022/05/17 09:46:33;;;;;;;3.77;2.13;;;28.20;50.20;;;-142.21;58.90;112049.66;5072134;28;20189;-70
2022/05/17 09:54:51;;;;;;;5.97;2.27;;;28.40;48.40;;;-142.21;51.64;112049.66;5091842;28;20197;-69
2022/05/17 09:57:22;;;;;;;2.83;2.50;;;28.50;47.80;;;-142.21;54.70;112049.66;5092036;28;20209;-69
2022/05/17 09:59:54;;;;;;;2.80;2.43;;;28.50;47.90;;;-142.21;60.16;112049.66;5092613;28;20277;-69
2022/05/17 10:02:50;;;;;;;3.07;2.30;;;28.60;49.20;;;-142.21;58.01;112049.66;5092411;28;20246;-69
2022/05/17 10:05:24;;;;;;;3.83;2.80;;;28.60;48.20;;;-142.21;57.57;112049.66;5075698;28;20306;-71
2022/05/17 10:08:00;;;;;;;4.73;2.50;;;28.80;48.50;;;-142.21;57.93;112049.66;5091756;28;20217;-70
2022/05/17 10:10:36;;;;;;;5.43;2.77;;;28.80;48.60;;;-142.21;59.63;112049.66;5092180;28;20270;-70
2022/05/17 10:13:19;;;;;;;4.60;2.67;;;28.80;48.80;;;-142.21;60.34;112049.66;5091693;28;20193;-70
2022/05/17 10:15:53;;;;;;;3.83;2.80;;;28.90;48.90;;;-142.21;59.11;112049.66;5092259;28;20297;-69
2022/05/17 10:18:39;;;;;;;4.77;3.00;;;28.90;48.80;;;-142.21;58.41;112049.66;5092257;28;20297;-70
2022/05/17 10:21:26;;;;;;;3.40;2.60;;;28.90;48.40;;;-142.21;62.54;112049.66;5075635;28;20247;-70
2022/05/17 10:24:05;;;;;;;3.40;2.33;;;29.10;49.30;;;-142.21;61.16;112049.66;5071360;28;20339;-70